createdAt,value
2022-10-01T00:00:54.295Z,100416.13
2022-10-01T00:03:23.372Z,100416.06
2022-10-01T00:06:06.576Z,100409.06
2022-10-01T00:08:34.128Z,100396.63
2022-10-01T00:11:01.676Z,100395.72
2022-10-01T00:13:36.140Z,100397.50
2022-10-01T00:16:09.183Z,100393.13
2022-10-01T00:18:40.644Z,100399.28
2022-10-01T00:21:13.687Z,100391.47
2022-10-01T00:23:42.460Z,100401.03
2022-10-01T00:26:18.938Z,100426.03
2022-10-01T00:28:47.843Z,100419.91
2022-10-01T00:31:15.962Z,100383.53
2022-10-01T00:33:43.088Z,100374.56
2022-10-01T00:36:11.048Z,100367.59
2022-10-01T00:38:40.288Z,100397.78
2022-10-01T00:41:08.157Z,100388.12
2022-10-01T00:43:40.186Z,100392.38
2022-10-01T00:46:21.682Z,100387.94
2022-10-01T00:49:01.250Z,100393.19
2022-10-01T00:51:35.307Z,100384.41
2022-10-01T00:54:08.536Z,100385.28
2022-10-01T00:56:36.200Z,100374.62
2022-10-01T00:59:03.861Z,100369.22
2022-10-01T01:01:31.253Z,100381.66
2022-10-01T01:03:58.613Z,100398.53
2022-10-01T01:06:25.550Z,100397.63
2022-10-01T01:08:55.295Z,100368.44
2022-10-01T01:11:48.291Z,100349.72
2022-10-01T01:14:15.052Z,100341.84
2022-10-01T01:17:10.877Z,100364.84
2022-10-01T01:19:50.576Z,100400.44
2022-10-01T01:22:22.986Z,100405.84
2022-10-01T01:25:01.379Z,100383.63
2022-10-01T01:27:31.431Z,100398.66
2022-10-01T01:30:08.677Z,100440.34
2022-10-01T01:33:04.634Z,100460.84
2022-10-01T01:35:38.145Z,100443.97
2022-10-01T01:38:10.698Z,100347.16
2022-10-01T01:40:41.051Z,100338.31
2022-10-01T01:43:14.082Z,100354.28
2022-10-01T01:45:42.291Z,100364.06
2022-10-01T01:48:13.249Z,100365.91
2022-10-01T01:50:56.954Z,100342.69
2022-10-01T01:53:24.641Z,100355.87
2022-10-01T01:55:53.220Z,100373.56
2022-10-01T01:58:20.679Z,100366.34
2022-10-01T02:00:54.487Z,100352.19
2022-10-01T02:03:25.868Z,100375.94
2022-10-01T02:06:17.078Z,100379.50
2022-10-01T02:09:03.559Z,100381.25
2022-10-01T02:11:38.153Z,100380.41
2022-10-01T02:14:25.871Z,100376.88
2022-10-01T02:17:04.938Z,100392.91
2022-10-01T02:19:41.222Z,100371.63
2022-10-01T02:22:22.807Z,100362.81
2022-10-01T02:24:57.694Z,100370.62
2022-10-01T02:27:30.140Z,100370.59
2022-10-01T02:30:01.876Z,100370.59
2022-10-01T02:32:31.526Z,100363.53
2022-10-01T02:35:01.181Z,100371.47
2022-10-01T02:37:28.770Z,100363.63
2022-10-01T02:39:57.888Z,100375.06
2022-10-01T02:42:28.439Z,100362.63
2022-10-01T02:45:02.459Z,100354.78
2022-10-01T02:48:00.951Z,100366.22
2022-10-01T02:50:50.654Z,100367.16
2022-10-01T02:53:31.757Z,100364.56
2022-10-01T02:56:01.083Z,100371.69
2022-10-01T02:58:27.846Z,100357.59
2022-10-01T03:00:54.773Z,100352.13
2022-10-01T03:03:21.502Z,100355.66
2022-10-01T03:05:48.369Z,100359.28
2022-10-01T03:08:15.074Z,100369.03
2022-10-01T03:10:46.029Z,100370.75
2022-10-01T03:13:13.805Z,100366.31
2022-10-01T03:15:45.703Z,100363.63
2022-10-01T03:18:12.442Z,100354.72
2022-10-01T03:20:39.220Z,100358.31
2022-10-01T03:23:05.965Z,100359.19
2022-10-01T03:25:32.727Z,100360.09
2022-10-01T03:27:59.686Z,100350.34
2022-10-01T03:30:26.993Z,100341.75
2022-10-01T03:32:53.737Z,100363.72
2022-10-01T03:35:20.506Z,100366.50
2022-10-01T03:37:47.759Z,100366.50
2022-10-01T03:40:14.688Z,100371.75
2022-10-01T03:42:41.409Z,100377.03
2022-10-01T03:45:08.612Z,100380.66
2022-10-01T03:47:35.359Z,100381.53
2022-10-01T03:50:02.249Z,100393.00
2022-10-01T03:52:29.066Z,100398.38
2022-10-01T03:54:55.830Z,100406.34
2022-10-01T03:57:22.610Z,100409.87
2022-10-01T03:59:49.350Z,100424.97
2022-10-01T04:02:16.267Z,100417.84
2022-10-01T04:04:43.090Z,100408.88
2022-10-01T04:07:09.834Z,100407.09
2022-10-01T04:09:37.620Z,100400.81
2022-10-01T04:12:05.120Z,100383.97
2022-10-01T04:14:31.866Z,100384.84
2022-10-01T04:16:59.119Z,100376.88
2022-10-01T04:19:25.850Z,100380.44
2022-10-01T04:21:52.697Z,100380.47
2022-10-01T04:24:19.424Z,100380.44
2022-10-01T04:26:46.128Z,100381.41
2022-10-01T04:29:12.930Z,100383.19
2022-10-01T04:31:40.432Z,100378.75
2022-10-01T04:34:07.319Z,100377.88
2022-10-01T04:36:34.319Z,100372.63
2022-10-01T04:39:02.732Z,100370.88
2022-10-01T04:41:33.196Z,100361.19
2022-10-01T04:44:00.869Z,100364.69
2022-10-01T04:46:30.197Z,100374.47
2022-10-01T04:48:57.338Z,100373.56
2022-10-01T04:51:24.660Z,100374.47
2022-10-01T04:53:51.528Z,100367.44
2022-10-01T04:56:18.314Z,100371.81
2022-10-01T04:58:45.109Z,100376.22
2022-10-01T05:01:11.989Z,100377.13
2022-10-01T05:03:38.773Z,100379.81
2022-10-01T05:06:05.655Z,100385.13
2022-10-01T05:08:32.434Z,100386.94
2022-10-01T05:11:00.597Z,100386.06
2022-10-01T05:13:30.163Z,100377.22
2022-10-01T05:15:58.807Z,100372.75
2022-10-01T05:18:26.037Z,100374.47
2022-10-01T05:20:52.832Z,100373.63
2022-10-01T05:23:19.546Z,100375.38
2022-10-01T05:25:47.178Z,100382.34
2022-10-01T05:28:18.450Z,100387.66
2022-10-01T05:30:48.911Z,100391.19
2022-10-01T05:33:15.738Z,100386.78
2022-10-01T05:35:42.642Z,100384.22
2022-10-01T05:38:09.468Z,100392.13
2022-10-01T05:40:36.377Z,100401.81
2022-10-01T05:43:04.376Z,100406.22
2022-10-01T05:45:31.941Z,100425.69
2022-10-01T05:48:04.293Z,100417.66
2022-10-01T05:50:34.563Z,100420.19
2022-10-01T05:53:02.595Z,100416.50
2022-10-01T05:55:34.569Z,100414.78
2022-10-01T05:58:04.592Z,100412.03
2022-10-01T06:00:33.418Z,100409.16
2022-10-01T06:03:02.766Z,100406.44
2022-10-01T06:05:31.409Z,100413.41
2022-10-01T06:07:59.400Z,100408.94
2022-10-01T06:10:28.216Z,100408.94
2022-10-01T06:13:02.302Z,100407.94
2022-10-01T06:15:34.291Z,100396.41
2022-10-01T06:18:06.132Z,100390.97
2022-10-01T06:20:33.144Z,100385.69
2022-10-01T06:23:00.145Z,100384.81
2022-10-01T06:25:29.758Z,100372.44
2022-10-01T06:27:58.914Z,100363.53
2022-10-01T06:30:27.299Z,100358.06
2022-10-01T06:32:59.675Z,100349.13
2022-10-01T06:35:26.462Z,100343.78
2022-10-01T06:37:53.184Z,100344.59
2022-10-01T06:40:20.103Z,100327.66
2022-10-01T06:42:48.285Z,100324.00
2022-10-01T06:45:16.240Z,100331.00
2022-10-01T06:47:43.036Z,100338.97
2022-10-01T06:50:12.717Z,100331.84
2022-10-01T06:52:51.650Z,100338.03
2022-10-01T06:55:20.829Z,100340.75
2022-10-01T06:57:48.220Z,100335.37
2022-10-01T07:00:15.091Z,100352.97
2022-10-01T07:02:41.930Z,100347.56
2022-10-01T07:05:09.276Z,100351.97
2022-10-01T07:07:37.801Z,100359.09
2022-10-01T07:10:07.870Z,100372.37
2022-10-01T07:12:38.412Z,100362.47
2022-10-01T07:15:06.430Z,100366.72
2022-10-01T07:17:33.781Z,100363.03
2022-10-01T07:20:01.760Z,100360.25
2022-10-01T07:22:28.572Z,100370.84
2022-10-01T07:24:55.376Z,100368.19
2022-10-01T07:27:22.162Z,100362.03
2022-10-01T07:29:48.916Z,100365.59
2022-10-01T07:32:15.843Z,100352.19
2022-10-01T07:34:42.714Z,100351.16
2022-10-01T07:37:10.061Z,100357.34
2022-10-01T07:39:37.332Z,100351.84
2022-10-01T07:42:04.387Z,100350.13
2022-10-01T07:44:31.144Z,100351.78
2022-10-01T07:46:58.191Z,100337.47
2022-10-01T07:49:27.926Z,100334.03
2022-10-01T07:51:55.861Z,100331.03
2022-10-01T07:54:23.063Z,100328.13
2022-10-01T07:56:52.904Z,100325.37
2022-10-01T07:59:19.787Z,100334.12
2022-10-01T08:01:51.869Z,100333.09
2022-10-01T08:04:38.212Z,100334.59
2022-10-01T08:07:06.091Z,100341.25
2022-10-01T08:09:33.108Z,100337.38
2022-10-01T08:12:00.163Z,100338.87
2022-10-01T08:14:28.669Z,100342.34
2022-10-01T08:16:56.525Z,100345.97
2022-10-01T08:19:23.512Z,100344.78
2022-10-01T08:21:50.399Z,100345.56
2022-10-01T08:24:17.878Z,100332.22
2022-10-01T08:26:44.714Z,100338.09
2022-10-01T08:29:16.260Z,100344.19
2022-10-01T08:31:43.816Z,100338.78
2022-10-01T08:34:10.630Z,100337.72
2022-10-01T08:36:37.910Z,100339.28
2022-10-01T08:39:04.731Z,100333.75
2022-10-01T08:41:43.796Z,100340.97
2022-10-01T08:44:19.497Z,100327.06
2022-10-01T08:46:46.572Z,100340.41
2022-10-01T08:49:20.731Z,100319.78
2022-10-01T08:52:10.880Z,100325.72
2022-10-01T08:54:51.975Z,100316.94
2022-10-01T08:57:23.735Z,100306.09
2022-10-01T09:00:14.818Z,100288.91
2022-10-01T09:02:43.590Z,100289.25
2022-10-01T09:05:27.205Z,100289.53
2022-10-01T09:08:18.965Z,100292.59
2022-10-01T09:10:53.503Z,100294.28
2022-10-01T09:13:22.960Z,100293.75
2022-10-01T09:15:56.322Z,100299.53
2022-10-01T09:18:51.044Z,100294.00
2022-10-01T09:21:23.033Z,100302.06
2022-10-01T09:24:15.286Z,100298.94
2022-10-01T09:26:46.357Z,100296.09
2022-10-01T09:29:23.941Z,100293.22
2022-10-01T09:31:53.517Z,100292.00
2022-10-01T09:34:35.177Z,100288.81
2022-10-01T09:37:21.549Z,100273.38
2022-10-01T09:40:21.475Z,100269.03
2022-10-01T09:42:48.444Z,100263.94
2022-10-01T09:45:17.050Z,100260.31
2022-10-01T09:47:48.786Z,100266.72
2022-10-01T09:50:20.301Z,100266.28
2022-10-01T09:52:50.220Z,100248.31
2022-10-01T09:55:44.181Z,100257.53
2022-10-01T09:58:18.523Z,100252.78
2022-10-01T10:00:45.800Z,100249.88
2022-10-01T10:03:28.780Z,100249.53
2022-10-01T10:05:57.091Z,100257.44
2022-10-01T10:08:33.580Z,100262.16
2022-10-01T10:11:03.379Z,100260.78
2022-10-01T10:13:39.197Z,100258.97
2022-10-01T10:16:28.813Z,100248.81
2022-10-01T10:19:00.934Z,100245.56
2022-10-01T10:21:31.587Z,100254.22
2022-10-01T10:24:00.920Z,100250.19
2022-10-01T10:26:38.485Z,100241.13
2022-10-01T10:29:08.608Z,100234.13
2022-10-01T10:31:38.512Z,100225.47
2022-10-01T10:34:05.240Z,100218.19
2022-10-01T10:36:38.471Z,100218.16
2022-10-01T10:39:10.416Z,100204.56
2022-10-01T10:41:37.858Z,100203.13
2022-10-01T10:44:07.858Z,100206.00
2022-10-01T10:46:38.187Z,100199.25
2022-10-01T10:49:18.844Z,100189.97
2022-10-01T10:51:53.866Z,100177.06
2022-10-01T10:54:29.393Z,100181.78
2022-10-01T10:57:05.372Z,100178.94
2022-10-01T10:59:34.147Z,100183.22
2022-10-01T11:02:03.737Z,100181.06
2022-10-01T11:04:44.273Z,100178.41
2022-10-01T11:07:13.506Z,100177.31
2022-10-01T11:09:56.596Z,100164.12
2022-10-01T11:12:56.523Z,100153.03
2022-10-01T11:15:45.459Z,100150.91
2022-10-01T11:18:44.265Z,100146.75
2022-10-01T11:21:28.556Z,100133.66
2022-10-01T11:27:10.403Z,100126.06
2022-10-01T11:29:39.858Z,100134.28
2022-10-01T11:32:09.921Z,100130.91
2022-10-01T11:38:19.972Z,100117.91
2022-10-01T11:40:54.321Z,100114.69
2022-10-01T11:43:27.206Z,100110.28
2022-10-01T11:46:01.026Z,100110.34
2022-10-01T11:48:35.604Z,100098.75
2022-10-01T11:51:09.349Z,100099.13
2022-10-01T11:53:45.520Z,100093.34
2022-10-01T11:56:38.012Z,100081.09
2022-10-01T11:59:45.059Z,100083.63
2022-10-01T12:02:40.726Z,100087.47
2022-10-01T12:05:17.238Z,100077.22
2022-10-01T12:07:53.941Z,100067.37
2022-10-01T12:10:39.328Z,100068.59
2022-10-01T12:13:22.745Z,100077.09
2022-10-01T12:15:52.316Z,100072.09
2022-10-01T12:18:26.365Z,100064.84
2022-10-01T12:20:55.968Z,100061.50
2022-10-01T12:23:28.627Z,100058.41
2022-10-01T12:26:21.153Z,100059.09
2022-10-01T12:29:12.510Z,100061.03
2022-10-01T12:32:03.062Z,100059.41
2022-10-01T12:34:54.207Z,100047.66
2022-10-01T12:37:40.053Z,100051.81
2022-10-01T12:40:26.603Z,100037.13
2022-10-01T12:43:21.291Z,100035.72
2022-10-01T12:45:54.321Z,100040.25
2022-10-01T12:48:47.569Z,100034.63
2022-10-01T12:51:35.583Z,100033.53
2022-10-01T12:54:41.031Z,100029.06
2022-10-01T12:57:33.071Z,100038.84
2022-10-01T13:00:16.775Z,100030.06
2022-10-01T13:02:46.669Z,100027.34
2022-10-01T13:06:07.527Z,100037.37
2022-10-01T13:08:52.513Z,100037.06
2022-10-01T13:11:51.104Z,100025.38
2022-10-01T13:14:19.265Z,100036.09
2022-10-01T13:16:54.767Z,100034.75
2022-10-01T13:19:55.679Z,100022.12
2022-10-01T13:22:40.748Z,100011.84
2022-10-01T13:25:26.197Z,100005.19
2022-10-01T13:28:03.678Z,99996.19
2022-10-01T13:30:45.137Z,99995.88
2022-10-01T13:33:27.401Z,99990.66
2022-10-01T13:35:57.542Z,99997.38
2022-10-01T13:38:29.425Z,99993.44
2022-10-01T13:41:05.040Z,99979.72
2022-10-01T13:43:34.431Z,99975.34
2022-10-01T13:46:10.518Z,99982.72
2022-10-01T13:48:46.958Z,99968.22
2022-10-01T13:51:15.340Z,99984.94
2022-10-01T13:53:42.074Z,99983.91
2022-10-01T13:56:14.490Z,99987.91
2022-10-01T13:58:46.467Z,99975.16
2022-10-01T14:01:20.019Z,99974.75
2022-10-01T14:04:05.283Z,99975.28
2022-10-01T14:06:35.257Z,99972.66
2022-10-01T14:09:29.589Z,99970.75
2022-10-01T14:12:22.011Z,99963.63
2022-10-01T14:15:15.480Z,99963.91
2022-10-01T14:17:44.748Z,99962.91
2022-10-01T14:20:24.616Z,99957.69
2022-10-01T14:23:15.400Z,99962.28
2022-10-01T14:26:03.233Z,99962.53
2022-10-01T14:28:35.760Z,99966.62
2022-10-01T14:31:24.305Z,99968.06
2022-10-01T14:34:17.714Z,99955.03
2022-10-01T14:36:50.905Z,99958.56
2022-10-01T14:39:29.229Z,99954.47
2022-10-01T14:41:57.943Z,99951.25
2022-10-01T14:44:31.658Z,99955.28
2022-10-01T14:46:59.904Z,99951.91
2022-10-01T14:49:27.968Z,99947.56
2022-10-01T14:52:05.312Z,99947.06
2022-10-01T14:54:44.763Z,99948.63
2022-10-01T14:57:17.914Z,99943.03
2022-10-01T14:59:48.335Z,99943.97
2022-10-01T15:02:23.787Z,99946.75
2022-10-01T15:04:53.240Z,99941.66
2022-10-01T15:07:20.280Z,99941.78
2022-10-01T15:09:51.261Z,99935.31
2022-10-01T15:12:22.342Z,99946.50
2022-10-01T15:14:53.824Z,99958.62
2022-10-01T15:17:25.436Z,99953.03
2022-10-01T15:19:59.212Z,99962.00
2022-10-01T15:22:29.862Z,99958.97
2022-10-01T15:25:01.595Z,99962.78
2022-10-01T15:27:29.025Z,99965.41
2022-10-01T15:29:58.874Z,99958.69
2022-10-01T15:32:28.132Z,99975.41
2022-10-01T15:34:59.816Z,99967.88
2022-10-01T15:37:34.408Z,99976.78
2022-10-01T15:40:06.151Z,99965.06
2022-10-01T15:42:36.551Z,99964.91
2022-10-01T15:45:09.524Z,99971.22
2022-10-01T15:47:37.599Z,99976.94
2022-10-01T15:50:10.403Z,99979.13
2022-10-01T15:52:52.055Z,99977.31
2022-10-01T15:55:27.562Z,99975.50
2022-10-01T15:58:06.653Z,99980.38
2022-10-01T16:00:44.854Z,99978.94
2022-10-01T16:03:23.385Z,99974.53
2022-10-01T16:05:54.923Z,99968.09
2022-10-01T16:08:25.915Z,99969.06
2022-10-01T16:11:08.088Z,99975.63
2022-10-01T16:13:39.282Z,99974.66
2022-10-01T16:16:10.757Z,99977.53
2022-10-01T16:18:37.637Z,99975.84
2022-10-01T16:21:06.203Z,99981.31
2022-10-01T16:23:49.909Z,99976.84
2022-10-01T16:26:29.034Z,99982.47
2022-10-01T16:29:11.603Z,99987.84
2022-10-01T16:31:44.617Z,99979.31
2022-10-01T16:34:13.354Z,99974.09
2022-10-01T16:36:40.564Z,99968.25
2022-10-01T16:39:07.547Z,99965.78
2022-10-01T16:41:35.949Z,99969.47
2022-10-01T16:44:05.211Z,99966.91
2022-10-01T16:46:33.478Z,99960.97
2022-10-01T16:49:00.401Z,99962.34
2022-10-01T16:51:33.237Z,99959.44
2022-10-01T16:54:01.866Z,99955.22
2022-10-01T16:56:28.659Z,99977.63
2022-10-01T16:58:55.497Z,99975.94
2022-10-01T17:01:22.309Z,99966.94
2022-10-01T17:03:49.121Z,99981.28
2022-10-01T17:06:15.999Z,99976.03
2022-10-01T17:08:42.824Z,99985.03
2022-10-01T17:11:12.813Z,99985.16
2022-10-01T17:13:39.744Z,99992.44
2022-10-01T17:16:06.813Z,99994.44
2022-10-01T17:18:33.655Z,99999.09
2022-10-01T17:21:03.566Z,99996.41
2022-10-01T17:23:30.381Z,99991.19
2022-10-01T17:25:57.154Z,99993.22
2022-10-01T17:28:24.520Z,99979.94
2022-10-01T17:30:51.374Z,99974.19
2022-10-01T17:33:19.451Z,99992.72
2022-10-01T17:35:51.729Z,99988.59
2022-10-01T17:38:19.444Z,99992.06
2022-10-01T17:40:46.775Z,99997.50
2022-10-01T17:43:15.842Z,100001.00
2022-10-01T17:45:43.630Z,99993.63
2022-10-01T17:48:10.539Z,99999.91
2022-10-01T17:50:43.448Z,100003.53
2022-10-01T17:53:12.022Z,100006.53
2022-10-01T17:55:42.545Z,100011.88
2022-10-01T17:58:10.017Z,100008.47
2022-10-01T18:00:37.161Z,100004.94
2022-10-01T18:03:04.261Z,100009.41
2022-10-01T18:05:31.186Z,99992.53
2022-10-01T18:07:58.191Z,99992.53
2022-10-01T18:10:25.005Z,99992.53
2022-10-01T18:12:51.803Z,100001.41
2022-10-01T18:15:20.874Z,100009.59
2022-10-01T18:17:52.089Z,100008.66
2022-10-01T18:20:23.206Z,100014.94
2022-10-01T18:22:50.595Z,100023.84
2022-10-01T18:25:19.425Z,100033.63
2022-10-01T18:27:49.973Z,100025.78
2022-10-01T18:30:17.413Z,100024.97
2022-10-01T18:32:48.282Z,100010.03
2022-10-01T18:35:28.129Z,100018.19
2022-10-01T18:37:58.455Z,100016.56
2022-10-01T18:40:29.113Z,100019.25
2022-10-01T18:43:17.699Z,100030.78
2022-10-01T18:46:12.655Z,100029.16
2022-10-01T18:49:03.343Z,100032.69
2022-10-01T18:51:52.151Z,100051.28
2022-10-01T18:54:28.158Z,100051.25
2022-10-01T18:57:00.961Z,100050.41
2022-10-01T18:59:30.740Z,100053.78
2022-10-01T19:02:26.395Z,100044.13
2022-10-01T19:05:24.936Z,100047.66
2022-10-01T19:08:17.396Z,100046.81
2022-10-01T19:11:18.427Z,100050.31
2022-10-01T19:13:53.908Z,100051.28
2022-10-01T19:16:41.067Z,100057.47
2022-10-01T19:19:35.343Z,100057.59
2022-10-01T19:22:26.393Z,100055.97
2022-10-01T19:24:59.871Z,100053.44
2022-10-01T19:28:04.404Z,100054.31
2022-10-01T19:30:46.606Z,100064.03
2022-10-01T19:33:17.536Z,100068.44
2022-10-01T19:35:50.081Z,100052.50
2022-10-01T19:38:33.863Z,100056.97
2022-10-01T19:41:15.828Z,100050.03
2022-10-01T19:43:46.424Z,100061.50
2022-10-01T19:46:15.274Z,100057.28
2022-10-01T19:49:04.953Z,100060.09
2022-10-01T19:51:43.738Z,100061.00
2022-10-01T19:54:24.744Z,100063.63
2022-10-01T19:56:54.752Z,100069.28
2022-10-01T19:59:22.203Z,100075.59
2022-10-01T20:02:01.379Z,100077.37
2022-10-01T20:04:55.313Z,100081.66
2022-10-01T20:07:36.330Z,100084.44
2022-10-01T20:10:14.948Z,100094.13
2022-10-01T20:12:59.804Z,100074.75
2022-10-01T20:16:18.218Z,100098.03
2022-10-01T20:19:03.315Z,100092.59
2022-10-01T20:21:46.570Z,100092.53
2022-10-01T20:24:19.172Z,100085.22
2022-10-01T20:26:58.980Z,100079.97
2022-10-01T20:29:50.782Z,100082.13
2022-10-01T20:32:49.608Z,100066.09
2022-10-01T20:35:25.037Z,100081.37
2022-10-01T20:38:19.390Z,100086.97
2022-10-01T20:40:52.393Z,100093.78
2022-10-01T20:43:33.257Z,100095.69
2022-10-01T20:46:08.754Z,100094.78
2022-10-01T20:48:37.830Z,100102.31
2022-10-01T20:51:10.235Z,100098.97
2022-10-01T20:53:45.237Z,100107.94
2022-10-01T20:56:30.966Z,100121.47
2022-10-01T20:59:08.022Z,100113.28
2022-10-01T21:01:40.180Z,100131.91
2022-10-01T21:04:13.196Z,100141.03
2022-10-01T21:06:47.576Z,100138.56
2022-10-01T21:09:25.047Z,100139.25
2022-10-01T21:12:02.229Z,100138.31
2022-10-01T21:14:52.385Z,100143.09
2022-10-01T21:17:33.342Z,100144.03
2022-10-01T21:20:21.120Z,100154.53
2022-10-01T21:23:09.468Z,100151.44
2022-10-01T21:25:54.680Z,100149.06
2022-10-01T21:28:43.332Z,100154.41
2022-10-01T21:31:29.010Z,100167.88
2022-10-01T21:34:13.659Z,100166.66
2022-10-01T21:36:58.780Z,100155.41
2022-10-01T21:39:52.173Z,100164.66
2022-10-01T21:42:47.079Z,100157.88
2022-10-01T21:45:25.215Z,100162.78
2022-10-01T21:48:03.295Z,100161.00
2022-10-01T21:50:51.551Z,100179.75
2022-10-01T21:53:50.332Z,100161.28
2022-10-01T21:56:37.479Z,100170.47
2022-10-01T21:59:41.691Z,100156.50
2022-10-01T22:02:36.966Z,100162.00
2022-10-01T22:05:22.778Z,100174.12
2022-10-01T22:08:14.570Z,100176.06
2022-10-01T22:10:46.608Z,100178.03
2022-10-01T22:13:21.494Z,100168.09
2022-10-01T22:15:52.943Z,100177.56
2022-10-01T22:18:28.240Z,100177.56
2022-10-01T22:20:58.100Z,100162.53
2022-10-01T22:23:27.214Z,100158.16
2022-10-01T22:25:59.326Z,100168.97
2022-10-01T22:28:36.980Z,100158.31
2022-10-01T22:31:06.455Z,100170.84
2022-10-01T22:33:46.946Z,100173.50
2022-10-01T22:36:19.250Z,100174.56
2022-10-01T22:38:54.167Z,100178.41
2022-10-01T22:41:33.408Z,100188.34
2022-10-01T22:44:04.859Z,100189.53
2022-10-01T22:46:43.944Z,100178.25
2022-10-01T22:49:41.613Z,100181.97
2022-10-01T22:52:28.171Z,100189.94
2022-10-01T22:55:32.290Z,100189.94
2022-10-01T22:58:22.188Z,100194.56
2022-10-01T23:01:12.807Z,100189.25
2022-10-01T23:03:55.661Z,100189.25
2022-10-01T23:06:41.314Z,100198.44
2022-10-01T23:09:24.960Z,100197.44
2022-10-01T23:12:04.735Z,100208.69
2022-10-01T23:14:48.366Z,100210.28
2022-10-01T23:18:08.969Z,100204.91
2022-10-01T23:21:13.890Z,100206.63
2022-10-01T23:23:45.654Z,100203.47
2022-10-01T23:26:47.897Z,100212.50
2022-10-01T23:29:25.201Z,100213.31
2022-10-01T23:32:10.807Z,100207.56
2022-10-01T23:34:59.858Z,100208.50
2022-10-01T23:37:41.548Z,100213.87
2022-10-01T23:40:13.274Z,100209.63
2022-10-01T23:43:05.000Z,100216.03
2022-10-01T23:45:57.283Z,100218.09
2022-10-01T23:48:40.538Z,100223.63
2022-10-01T23:51:22.891Z,100230.81
2022-10-01T23:53:59.063Z,100221.13
2022-10-01T23:56:50.715Z,100221.19
2022-10-01T23:59:38.861Z,100232.63
